createdAt,value
2018-04-24T00:00:11.136Z,59.20
2018-04-24T00:02:39.178Z,59.20
2018-04-24T00:05:07.257Z,59.90
2018-04-24T00:07:35.322Z,60.40
2018-04-24T00:10:03.492Z,61.30
2018-04-24T00:12:31.563Z,61.90
2018-04-24T00:14:59.737Z,62.10
2018-04-24T00:17:27.780Z,62.80
2018-04-24T00:19:55.842Z,63.60
2018-04-24T00:22:23.924Z,63.60
2018-04-24T00:24:51.974Z,64.20
2018-04-24T00:27:20.788Z,64.40
2018-04-24T00:29:49.615Z,64.10
2018-04-24T00:32:19.230Z,64.70
2018-04-24T00:34:47.378Z,64.30
2018-04-24T00:37:15.429Z,64.60
2018-04-24T00:39:43.573Z,65.40
2018-04-24T00:42:11.676Z,64.70
2018-04-24T00:44:40.579Z,64.40
2018-04-24T00:47:08.768Z,64.70
2018-04-24T00:49:36.802Z,64.50
2018-04-24T00:52:04.910Z,63.40
2018-04-24T00:54:33.254Z,63.10
2018-04-24T00:57:01.338Z,64.10
2018-04-24T00:59:29.414Z,63.60
2018-04-24T01:01:57.462Z,63.70
2018-04-24T01:04:26.297Z,63.70
2018-04-24T01:06:54.340Z,64.30
2018-04-24T01:09:22.412Z,64.30
2018-04-24T01:11:50.486Z,64.80
2018-04-24T01:14:18.525Z,65.00
2018-04-24T01:16:47.143Z,65.40
2018-04-24T01:19:15.209Z,65.90
2018-04-24T01:21:43.280Z,65.90
2018-04-24T01:24:11.332Z,66.60
2018-04-24T01:26:39.413Z,67.10
2018-04-24T01:29:07.465Z,66.90
2018-04-24T01:31:35.563Z,67.20
2018-04-24T01:34:03.611Z,66.90
2018-04-24T01:36:31.743Z,67.30
2018-04-24T01:38:59.892Z,67.40
2018-04-24T01:41:27.949Z,67.10
2018-04-24T01:43:55.986Z,67.60
2018-04-24T01:46:24.845Z,68.40
2018-04-24T01:48:52.983Z,68.40
2018-04-24T01:51:21.046Z,68.90
2018-04-24T01:53:49.095Z,69.40
2018-04-24T01:56:17.901Z,70.20
2018-04-24T01:58:45.950Z,70.20
2018-04-24T02:01:14.047Z,70.20
2018-04-24T02:03:42.114Z,71.00
2018-04-24T02:06:10.178Z,70.50
2018-04-24T02:08:38.261Z,70.50
2018-04-24T02:11:06.370Z,70.90
2018-04-24T02:13:34.425Z,71.00
2018-04-24T02:16:02.478Z,70.90
2018-04-24T02:18:30.578Z,71.10
2018-04-24T02:20:58.766Z,71.40
2018-04-24T02:23:26.826Z,72.00
2018-04-24T02:25:54.965Z,72.10
2018-04-24T02:28:23.039Z,72.60
2018-04-24T02:30:51.151Z,72.20
2018-04-24T02:33:19.314Z,72.60
2018-04-24T02:35:47.381Z,72.20
2018-04-24T02:38:15.428Z,72.30
2018-04-24T02:40:43.547Z,72.00
2018-04-24T02:43:11.627Z,71.40
2018-04-24T02:45:39.771Z,71.70
2018-04-24T02:48:07.938Z,71.80
2018-04-24T02:50:36.140Z,71.50
2018-04-24T02:53:04.267Z,71.50
2018-04-24T02:55:32.313Z,70.90
2018-04-24T02:58:00.402Z,71.50
2018-04-24T03:00:28.450Z,71.60
2018-04-24T03:02:56.525Z,71.30
2018-04-24T03:05:25.361Z,72.00
2018-04-24T03:07:53.410Z,71.50
2018-04-24T03:10:21.497Z,71.80
2018-04-24T03:12:49.542Z,71.70
2018-04-24T03:15:17.694Z,71.70
2018-04-24T03:17:46.477Z,73.10
2018-04-24T03:20:15.344Z,72.90
2018-04-24T03:22:43.482Z,72.30
2018-04-24T03:25:11.562Z,72.20
2018-04-24T03:27:40.237Z,72.20
2018-04-24T03:30:08.329Z,72.20
2018-04-24T03:32:36.409Z,72.20
2018-04-24T03:35:04.583Z,72.30
2018-04-24T03:37:32.610Z,72.60
2018-04-24T03:40:00.660Z,72.10
2018-04-24T03:42:29.512Z,72.70
2018-04-24T03:44:57.562Z,72.20
2018-04-24T03:47:25.645Z,72.20
2018-04-24T03:49:53.807Z,72.30
2018-04-24T03:52:21.860Z,73.00
2018-04-24T03:54:49.946Z,72.90
2018-04-24T03:57:18.126Z,72.90
2018-04-24T03:59:46.103Z,73.30
2018-04-24T04:02:14.190Z,72.90
2018-04-24T04:04:42.358Z,72.40
2018-04-24T04:07:10.418Z,72.60
2018-04-24T04:09:38.625Z,72.50
2018-04-24T04:12:06.787Z,72.80
2018-04-24T04:14:34.833Z,72.60
2018-04-24T04:17:14.708Z,72.40
2018-04-24T04:19:54.773Z,72.30
2018-04-24T04:22:34.662Z,72.70
2018-04-24T04:25:02.776Z,72.40
2018-04-24T04:27:31.666Z,72.40
2018-04-24T04:29:59.702Z,72.50
2018-04-24T04:32:27.822Z,72.70
2018-04-24T04:34:55.900Z,72.90
2018-04-24T04:37:24.009Z,72.90
2018-04-24T04:39:53.569Z,72.30
2018-04-24T04:42:21.615Z,72.10
2018-04-24T04:44:50.069Z,71.90
2018-04-24T04:47:18.175Z,71.00
2018-04-24T04:49:46.638Z,70.50
2018-04-24T04:52:14.738Z,70.30
2018-04-24T04:54:42.820Z,69.70
2018-04-24T04:57:11.286Z,69.50
2018-04-24T04:59:39.353Z,69.40
2018-04-24T05:02:07.398Z,69.50
2018-04-24T05:04:35.473Z,69.50
2018-04-24T05:07:03.543Z,69.50
2018-04-24T05:09:31.631Z,69.70
2018-04-24T05:11:59.723Z,69.60
2018-04-24T05:14:27.765Z,69.60
2018-04-24T05:16:55.842Z,69.30
2018-04-24T05:19:23.911Z,69.10
2018-04-24T05:21:52.085Z,69.10
2018-04-24T05:24:20.141Z,68.70
2018-04-24T05:26:48.190Z,68.80
2018-04-24T05:29:16.266Z,68.50
2018-04-24T05:31:44.379Z,68.30
2018-04-24T05:34:12.418Z,68.00
2018-04-24T05:36:40.574Z,68.00
2018-04-24T05:39:08.635Z,66.90
2018-04-24T05:41:36.755Z,66.20
2018-04-24T05:44:04.812Z,65.80
2018-04-24T05:46:32.854Z,65.70
2018-04-24T05:49:00.962Z,65.50
2018-04-24T05:51:29.050Z,65.90
2018-04-24T05:53:57.101Z,65.50
2018-04-24T05:56:25.144Z,65.50
2018-04-24T05:58:53.967Z,65.80
2018-04-24T06:01:22.003Z,65.30
2018-04-24T06:03:50.844Z,65.50
2018-04-24T06:06:18.891Z,65.30
2018-04-24T06:08:47.036Z,65.10
2018-04-24T06:11:15.083Z,64.90
2018-04-24T06:13:43.213Z,64.70
2018-04-24T06:16:11.284Z,64.10
2018-04-24T06:18:39.348Z,63.80
2018-04-24T06:21:07.424Z,63.50
2018-04-24T06:23:35.510Z,63.50
2018-04-24T06:26:03.571Z,63.80
2018-04-24T06:28:31.846Z,63.30
2018-04-24T06:30:59.808Z,63.30
2018-04-24T06:33:27.921Z,63.20
2018-04-24T06:35:56.127Z,63.50
2018-04-24T06:38:24.480Z,62.80
2018-04-24T06:40:52.498Z,62.80
2018-04-24T06:43:21.326Z,62.90
2018-04-24T06:45:49.440Z,63.00
2018-04-24T06:48:17.472Z,62.70
2018-04-24T06:50:45.550Z,62.70
2018-04-24T06:53:13.582Z,62.80
2018-04-24T06:55:41.648Z,63.10
2018-04-24T06:58:09.686Z,63.70
2018-04-24T07:00:38.534Z,63.80
2018-04-24T07:03:07.681Z,62.30
2018-04-24T07:05:35.703Z,62.80
2018-04-24T07:08:04.837Z,61.30
2018-04-24T07:10:33.686Z,61.00
2018-04-24T07:13:01.728Z,61.50
2018-04-24T07:15:29.774Z,60.90
2018-04-24T07:17:57.838Z,62.10
2018-04-24T07:20:26.662Z,63.00
2018-04-24T07:22:54.714Z,62.90
2018-04-24T07:25:22.791Z,63.30
2018-04-24T07:27:50.834Z,62.60
2018-04-24T07:30:19.743Z,62.70
2018-04-24T07:32:48.575Z,63.10
2018-04-24T07:35:16.602Z,63.10
2018-04-24T07:37:44.673Z,63.10
2018-04-24T07:40:12.744Z,63.00
2018-04-24T07:42:40.899Z,62.70
2018-04-24T07:45:08.879Z,62.60
2018-04-24T07:47:38.877Z,63.00
2018-04-24T07:50:06.962Z,63.00
2018-04-24T07:52:35.018Z,62.30
2018-04-24T07:55:03.106Z,61.40
2018-04-24T07:57:31.161Z,60.40
2018-04-24T07:59:59.369Z,58.80
2018-04-24T08:02:27.416Z,57.80
2018-04-24T08:04:55.480Z,57.60
2018-04-24T08:07:23.543Z,58.30
2018-04-24T08:09:51.650Z,58.90
2018-04-24T08:12:19.708Z,58.60
2018-04-24T08:14:48.499Z,59.70
2018-04-24T08:17:17.310Z,61.00
2018-04-24T08:19:45.366Z,61.70
2018-04-24T08:22:13.425Z,62.20
2018-04-24T08:24:41.494Z,62.60
2018-04-24T08:27:09.554Z,62.80
2018-04-24T08:29:37.613Z,63.90
2018-04-24T08:32:05.658Z,64.30
2018-04-24T08:34:33.739Z,64.60
2018-04-24T08:37:01.787Z,64.10
2018-04-24T08:39:29.841Z,63.90
2018-04-24T08:41:57.894Z,64.20
2018-04-24T08:44:26.730Z,64.50
2018-04-24T08:46:54.786Z,64.00
2018-04-24T08:49:22.858Z,64.10
2018-04-24T08:51:50.928Z,63.80
2018-04-24T08:54:18.965Z,63.80
2018-04-24T08:56:47.805Z,64.70
2018-04-24T08:59:15.858Z,64.60
2018-04-24T09:01:43.946Z,65.20
2018-04-24T09:04:11.994Z,65.80
2018-04-24T09:06:40.097Z,66.00
2018-04-24T09:09:08.239Z,66.30
2018-04-24T09:11:37.039Z,69.80
2018-04-24T09:14:05.190Z,69.50
2018-04-24T09:16:33.219Z,70.60
2018-04-24T09:19:01.348Z,70.90
2018-04-24T09:21:30.185Z,72.30
2018-04-24T09:23:58.254Z,73.60
2018-04-24T09:26:26.323Z,73.10
2018-04-24T09:28:54.390Z,72.30
2018-04-24T09:34:18.246Z,71.80
2018-04-24T09:36:46.401Z,73.10
2018-04-24T09:39:15.452Z,72.20
2018-04-24T09:41:43.531Z,72.90
2018-04-24T09:44:11.598Z,72.50
2018-04-24T09:46:40.402Z,71.30
2018-04-24T09:49:08.474Z,71.60
2018-04-24T09:51:37.348Z,71.90
2018-04-24T09:54:05.408Z,71.70
2018-04-24T09:56:33.479Z,72.50
2018-04-24T09:59:01.530Z,73.20
2018-04-24T10:01:29.606Z,73.60
2018-04-24T10:03:57.662Z,72.60
2018-04-24T10:06:25.721Z,73.00
2018-04-24T10:08:53.799Z,73.90
2018-04-24T10:11:21.862Z,73.60
2018-04-24T10:13:49.993Z,72.30
2018-04-24T10:16:18.054Z,72.80
2018-04-24T10:18:46.095Z,72.90
2018-04-24T10:21:14.148Z,73.40
2018-04-24T10:23:42.268Z,73.30
2018-04-24T10:26:10.327Z,74.40
2018-04-24T10:28:38.395Z,74.20
2018-04-24T10:31:06.462Z,74.20
2018-04-24T10:33:34.559Z,74.40
2018-04-24T10:36:02.619Z,74.90
2018-04-24T10:38:30.689Z,74.20
2018-04-24T10:40:58.797Z,74.60
2018-04-24T10:43:26.886Z,73.20
2018-04-24T10:45:54.907Z,72.60
2018-04-24T10:48:23.726Z,71.40
2018-04-24T10:50:52.560Z,70.30
2018-04-24T10:53:20.640Z,68.50
2018-04-24T10:55:48.725Z,68.60
2018-04-24T10:58:17.657Z,68.70
2018-04-24T11:00:46.487Z,69.90
2018-04-24T11:03:14.558Z,69.40
2018-04-24T11:05:42.650Z,69.30
2018-04-24T11:08:10.719Z,69.50
2018-04-24T11:10:38.783Z,70.00
2018-04-24T11:13:06.841Z,67.90
2018-04-24T11:15:34.967Z,66.70
2018-04-24T11:18:02.974Z,66.60
2018-04-24T11:20:31.046Z,66.20
2018-04-24T11:22:59.117Z,66.60
2018-04-24T11:25:27.179Z,67.60
2018-04-24T11:27:55.230Z,68.20
2018-04-24T11:30:24.275Z,69.80
2018-04-24T11:32:52.218Z,68.90
2018-04-24T11:35:20.342Z,68.00
2018-04-24T11:37:48.391Z,68.10
2018-04-24T11:40:16.458Z,67.80
2018-04-24T11:42:45.303Z,67.80
2018-04-24T11:45:14.163Z,67.40
2018-04-24T11:47:42.151Z,67.30
2018-04-24T11:50:11.061Z,66.00
2018-04-24T11:52:39.134Z,65.90
2018-04-24T11:55:07.191Z,64.70
2018-04-24T11:57:36.093Z,64.20
2018-04-24T12:00:04.116Z,64.10
2018-04-24T12:02:32.230Z,63.40
2018-04-24T12:05:00.290Z,62.70
2018-04-24T12:07:29.094Z,62.70
2018-04-24T12:09:57.171Z,62.70
2018-04-24T12:12:25.976Z,63.50
2018-04-24T12:14:54.017Z,63.40
2018-04-24T12:17:22.854Z,63.30
2018-04-24T12:19:50.988Z,62.80
2018-04-24T12:22:19.013Z,62.10
2018-04-24T12:24:47.075Z,61.80
2018-04-24T12:27:15.126Z,61.30
2018-04-24T12:29:43.216Z,61.20
2018-04-24T12:32:11.299Z,61.80
2018-04-24T12:34:39.416Z,61.90
2018-04-24T12:37:07.457Z,62.50
2018-04-24T12:39:35.538Z,63.50
2018-04-24T12:42:03.668Z,64.70
2018-04-24T12:44:31.699Z,64.70
2018-04-24T12:47:00.550Z,64.60
2018-04-24T12:49:28.608Z,64.60
2018-04-24T12:51:56.694Z,63.20
2018-04-24T12:54:24.774Z,63.80
2018-04-24T12:56:52.847Z,62.80
2018-04-24T12:59:20.954Z,63.80
2018-04-24T13:01:49.083Z,63.80
2018-04-24T13:04:17.125Z,64.00
2018-04-24T13:06:45.263Z,64.20
2018-04-24T13:09:13.294Z,64.20
2018-04-24T13:11:41.370Z,64.00
2018-04-24T13:14:09.446Z,63.70
2018-04-24T13:16:37.654Z,63.40
2018-04-24T13:19:05.674Z,62.90
2018-04-24T13:21:33.753Z,61.60
2018-04-24T13:24:01.813Z,58.80
2018-04-24T13:26:29.882Z,58.50
2018-04-24T13:28:57.942Z,59.00
2018-04-24T13:31:26.011Z,56.70
2018-04-24T13:33:54.082Z,57.10
2018-04-24T13:36:22.150Z,56.20
2018-04-24T13:38:50.238Z,58.00
2018-04-24T13:41:18.329Z,58.00
2018-04-24T13:43:46.605Z,58.40
2018-04-24T13:46:14.639Z,59.20
2018-04-24T13:48:42.722Z,60.50
2018-04-24T13:51:10.810Z,60.30
2018-04-24T13:53:39.276Z,60.80
2018-04-24T13:56:07.389Z,61.40
2018-04-24T13:58:35.429Z,61.60
2018-04-24T14:01:03.487Z,61.40
2018-04-24T14:03:31.591Z,61.40
2018-04-24T14:05:59.670Z,61.60
2018-04-24T14:08:28.869Z,61.30
2018-04-24T14:10:57.837Z,61.80
2018-04-24T14:13:25.898Z,61.10
2018-04-24T14:15:53.981Z,60.90
2018-04-24T14:18:22.042Z,61.60
2018-04-24T14:20:50.503Z,61.80
2018-04-24T14:23:19.326Z,61.80
2018-04-24T14:25:47.381Z,61.40
2018-04-24T14:28:15.439Z,60.90
2018-04-24T14:30:43.555Z,60.30
2018-04-24T14:33:11.603Z,60.00
2018-04-24T14:35:39.678Z,60.00
2018-04-24T14:38:07.753Z,60.40
2018-04-24T14:40:35.798Z,61.10
2018-04-24T14:43:03.874Z,62.00
2018-04-24T14:45:31.942Z,62.40
2018-04-24T14:48:00.017Z,63.40
2018-04-24T14:50:28.085Z,63.60
2018-04-24T14:52:56.159Z,62.80
2018-04-24T14:55:24.214Z,62.40
2018-04-24T14:57:52.281Z,63.00
2018-04-24T15:00:20.343Z,62.50
2018-04-24T15:02:48.424Z,63.00
2018-04-24T15:05:16.503Z,63.00
2018-04-24T15:07:44.577Z,63.60
2018-04-24T15:10:12.653Z,64.10
2018-04-24T15:12:40.703Z,64.70
2018-04-24T15:15:08.808Z,64.70
2018-04-24T15:17:36.871Z,64.10
2018-04-24T15:20:04.963Z,64.50
2018-04-24T15:22:33.145Z,64.00
2018-04-24T15:25:01.235Z,64.60
2018-04-24T15:27:30.074Z,64.90
2018-04-24T15:29:58.148Z,64.70
2018-04-24T15:32:26.225Z,64.80
2018-04-24T15:34:54.306Z,64.90
2018-04-24T15:37:22.370Z,65.10
2018-04-24T15:39:50.428Z,65.70
2018-04-24T15:42:18.509Z,65.50
2018-04-24T15:44:46.553Z,65.60
2018-04-24T15:47:14.643Z,65.20
2018-04-24T15:49:42.712Z,64.60
2018-04-24T15:52:10.782Z,62.80
2018-04-24T15:54:38.818Z,63.30
2018-04-24T15:57:08.350Z,62.80
2018-04-24T15:59:36.408Z,62.70
2018-04-24T16:02:04.467Z,61.50
2018-04-24T16:04:33.277Z,62.40
2018-04-24T16:07:01.328Z,61.90
2018-04-24T16:09:30.139Z,62.10
2018-04-24T16:11:58.194Z,61.70
2018-04-24T16:14:26.280Z,61.70
2018-04-24T16:16:54.356Z,61.30
2018-04-24T16:19:22.411Z,61.00
2018-04-24T16:21:50.854Z,61.20
2018-04-24T16:24:19.334Z,61.20
2018-04-24T16:26:47.403Z,60.70
2018-04-24T16:29:17.049Z,61.40
2018-04-24T16:31:45.106Z,60.90
2018-04-24T16:34:14.030Z,61.60
2018-04-24T16:36:42.116Z,60.80
2018-04-24T16:39:10.158Z,60.60
2018-04-24T16:41:38.640Z,60.50
2018-04-24T16:44:06.718Z,61.40
2018-04-24T16:46:34.818Z,61.80
2018-04-24T16:49:02.956Z,62.10
2018-04-24T16:51:31.033Z,62.30
2018-04-24T16:53:59.869Z,63.20
2018-04-24T16:56:27.944Z,62.90
2018-04-24T16:58:56.007Z,63.20
2018-04-24T17:01:24.053Z,63.30
2018-04-24T17:03:52.109Z,63.70
2018-04-24T17:06:20.158Z,64.10
2018-04-24T17:08:48.984Z,65.00
2018-04-24T17:11:17.033Z,64.60
2018-04-24T17:13:45.900Z,65.30
2018-04-24T17:16:14.353Z,64.50
2018-04-24T17:18:42.876Z,64.70
2018-04-24T17:21:10.887Z,64.90
2018-04-24T17:23:38.963Z,65.30
2018-04-24T17:26:07.069Z,65.10
2018-04-24T17:28:35.901Z,65.90
2018-04-24T17:31:04.052Z,65.80
2018-04-24T17:33:32.080Z,66.10
2018-04-24T17:36:00.134Z,66.20
2018-04-24T17:38:28.268Z,66.60
2018-04-24T17:40:56.306Z,66.50
2018-04-24T17:43:25.232Z,66.60
2018-04-24T17:45:53.333Z,67.20
2018-04-24T17:48:21.365Z,67.30
2018-04-24T17:50:50.197Z,67.50
2018-04-24T17:53:19.513Z,67.70
2018-04-24T17:55:47.565Z,67.20
2018-04-24T17:58:16.657Z,67.40
2018-04-24T18:00:45.905Z,67.40
2018-04-24T18:03:14.393Z,67.40
2018-04-24T18:05:43.218Z,68.10
2018-04-24T18:08:11.294Z,67.50
2018-04-24T18:10:39.650Z,67.60
2018-04-24T18:13:08.462Z,68.50
2018-04-24T18:15:36.627Z,67.90
2018-04-24T18:18:05.447Z,68.80
2018-04-24T18:20:33.534Z,68.70
2018-04-24T18:23:01.613Z,68.10
2018-04-24T18:25:30.478Z,68.70
2018-04-24T18:27:58.590Z,68.50
2018-04-24T18:30:27.424Z,68.50
2018-04-24T18:32:55.502Z,68.50
2018-04-24T18:35:24.263Z,68.40
2018-04-24T18:37:53.193Z,69.20
2018-04-24T18:40:22.137Z,68.90
2018-04-24T18:42:50.177Z,68.90
2018-04-24T18:45:18.226Z,69.50
2018-04-24T18:47:46.340Z,69.50
2018-04-24T18:50:15.209Z,69.80
2018-04-24T18:52:43.279Z,69.80
2018-04-24T18:55:11.356Z,70.80
2018-04-24T18:57:39.523Z,70.80
2018-04-24T19:00:07.777Z,71.30
2018-04-24T19:02:35.854Z,71.00
2018-04-24T19:05:04.604Z,70.90
2018-04-24T19:07:32.730Z,70.90
2018-04-24T19:10:00.830Z,70.90
2018-04-24T19:12:29.015Z,71.00
2018-04-24T19:14:57.048Z,71.10
2018-04-24T19:17:25.100Z,71.70
2018-04-24T19:19:53.275Z,71.50
2018-04-24T19:22:22.030Z,72.00
2018-04-24T19:24:55.851Z,71.80
2018-04-24T19:27:23.906Z,72.20
2018-04-24T19:29:51.978Z,72.20
2018-04-24T19:32:25.724Z,72.30
2018-04-24T19:34:53.783Z,72.50
2018-04-24T19:37:21.865Z,72.60
2018-04-24T19:39:55.601Z,72.60
2018-04-24T19:42:23.677Z,72.80
2018-04-24T19:44:52.590Z,73.00
2018-04-24T19:47:20.688Z,73.00
2018-04-24T19:49:54.397Z,73.20
2018-04-24T19:52:22.458Z,73.30
2018-04-24T19:54:56.383Z,73.50
2018-04-24T19:57:24.444Z,73.50
2018-04-24T19:59:52.525Z,73.60
2018-04-24T20:02:20.656Z,73.70
2018-04-24T20:04:48.802Z,73.70
2018-04-24T20:07:16.871Z,73.30
2018-04-24T20:09:44.992Z,73.80
2018-04-24T20:12:13.061Z,73.80
2018-04-24T20:14:41.142Z,74.00
2018-04-24T20:17:09.316Z,74.20
2018-04-24T20:19:37.391Z,74.20
2018-04-24T20:22:05.418Z,73.90
2018-04-24T20:24:34.281Z,74.00
2018-04-24T20:27:02.329Z,74.00
2018-04-24T20:29:30.403Z,73.90
2018-04-24T20:34:32.943Z,73.90
2018-04-24T20:37:01.823Z,73.60
2018-04-24T20:39:29.893Z,73.60
2018-04-24T20:41:57.930Z,73.60
2018-04-24T20:44:25.990Z,73.50
2018-04-24T20:46:54.054Z,73.40
2018-04-24T20:49:22.115Z,73.50
2018-04-24T20:51:50.199Z,73.60
2018-04-24T20:54:18.300Z,73.40
2018-04-24T20:56:46.326Z,73.30
2018-04-24T20:59:14.411Z,73.80
2018-04-24T21:01:42.491Z,73.50
2018-04-24T21:04:10.538Z,73.50
2018-04-24T21:06:38.615Z,73.60
2018-04-24T21:09:06.678Z,73.60
2018-04-24T21:11:34.741Z,73.30
2018-04-24T21:14:02.828Z,73.30
2018-04-24T21:16:30.886Z,74.00
2018-04-24T21:18:58.937Z,73.60
2018-04-24T21:21:27.754Z,74.20
2018-04-24T21:23:55.810Z,74.10
2018-04-24T21:26:24.649Z,75.10
2018-04-24T21:28:52.749Z,74.60
2018-04-24T21:31:20.792Z,74.70
2018-04-24T21:33:48.877Z,74.70
2018-04-24T21:36:17.477Z,74.90
2018-04-24T21:38:45.512Z,74.80
2018-04-24T21:41:13.584Z,75.00
2018-04-24T21:43:41.664Z,75.20
2018-04-24T21:46:09.726Z,75.30
2018-04-24T21:48:37.767Z,75.60
2018-04-24T21:51:05.861Z,75.80
2018-04-24T21:53:33.905Z,76.00
2018-04-24T21:56:02.830Z,76.50
2018-04-24T21:58:30.863Z,76.50
2018-04-24T22:00:58.930Z,76.10
2018-04-24T22:03:27.783Z,77.00
2018-04-24T22:05:55.841Z,76.40
2018-04-24T22:08:23.937Z,76.50
2018-04-24T22:10:52.233Z,77.10
2018-04-24T22:13:20.340Z,76.70
2018-04-24T22:15:48.367Z,77.10
2018-04-24T22:18:16.420Z,76.90
2018-04-24T22:20:44.465Z,76.40
2018-04-24T22:23:12.534Z,76.60
2018-04-24T22:25:40.631Z,76.20
2018-04-24T22:28:08.712Z,76.70
2018-04-24T22:30:36.765Z,76.60
2018-04-24T22:33:04.878Z,76.70
2018-04-24T22:35:32.924Z,76.70
2018-04-24T22:38:01.001Z,76.80
2018-04-24T22:40:29.056Z,76.90
2018-04-24T22:42:57.129Z,77.10
2018-04-24T22:45:25.216Z,77.20
2018-04-24T22:47:53.294Z,77.10
2018-04-24T22:50:22.128Z,77.70
2018-04-24T22:52:50.187Z,77.00
2018-04-24T22:55:18.260Z,77.20
2018-04-24T22:57:46.429Z,77.10
2018-04-24T23:00:15.379Z,77.10
2018-04-24T23:02:43.428Z,77.30
2018-04-24T23:05:11.694Z,77.40
2018-04-24T23:07:39.793Z,77.90
2018-04-24T23:10:07.415Z,78.10
2018-04-24T23:12:47.491Z,78.40
2018-04-24T23:15:27.415Z,78.40
2018-04-24T23:18:07.502Z,79.00
2018-04-24T23:20:35.140Z,79.30
2018-04-24T23:23:03.199Z,80.70
2018-04-24T23:25:31.285Z,80.30
2018-04-24T23:27:59.377Z,80.50
2018-04-24T23:30:27.408Z,80.70
2018-04-24T23:32:55.494Z,81.00
2018-04-24T23:35:23.570Z,81.90
2018-04-24T23:37:51.645Z,82.30
2018-04-24T23:40:19.824Z,82.80
2018-04-24T23:42:47.871Z,83.90
2018-04-24T23:45:15.949Z,89.20
2018-04-24T23:47:44.014Z,90.10
2018-04-24T23:50:12.105Z,89.70
2018-04-24T23:52:40.282Z,89.60
2018-04-24T23:55:08.361Z,90.50
2018-04-24T23:57:36.533Z,89.90
